Time;durP1;ratioP1;P1;durP2;ratioP2;P2;SDS_P1;SDS_P2;PMS_P1;PMS_P2;Temp;Humidity;BMP_temperature;BMP_pressure;BME280_temperature;BME280_humidity;BME280_pressure;Samples;Min_cycle;Max_cycle;Signal;HPM_P1;HPM_P2
2024/04/15 00:01:22;;;;;;;2.90;0.95;;;;;;;7.85;67.79;99852.50;5461416;25;20392;-51
2024/04/15 00:03:49;;;;;;;6.55;1.27;;;;;;;7.82;68.77;99842.16;5465127;25;20030;-50
2024/04/15 00:06:17;;;;;;;2.40;0.82;;;;;;;7.86;68.09;99846.47;5455549;26;20003;-53
2024/04/15 00:08:44;;;;;;;1.25;0.80;;;;;;;7.87;68.26;99840.44;5458038;25;20187;-51
2024/04/15 00:11:12;;;;;;;3.30;0.85;;;;;;;7.78;69.14;99837.84;5462164;26;20540;-52
2024/04/15 00:13:40;;;;;;;1.05;0.70;;;;;;;7.80;69.55;99831.84;5458083;26;19998;-54
2024/04/15 00:16:09;;;;;;;7.60;0.82;;;;;;;7.88;68.72;99826.72;5458242;26;20050;-52
2024/04/15 00:18:37;;;;;;;2.38;0.88;;;;;;;7.87;68.79;99819.81;5456066;25;19999;-52
2024/04/15 00:21:10;;;;;;;3.75;1.10;;;;;;;7.89;68.87;99807.81;5458939;26;20010;-53
2024/04/15 00:23:38;;;;;;;2.40;1.02;;;;;;;7.92;68.24;99802.69;5456796;26;20010;-58
2024/04/15 00:26:06;;;;;;;1.05;0.88;;;;;;;7.89;68.96;99804.34;5459013;26;20017;-55
2024/04/15 00:28:33;;;;;;;7.40;1.02;;;;;;;7.82;69.67;99793.16;5459390;26;20006;-51
2024/04/15 00:31:01;;;;;;;1.70;0.85;;;;;;;7.85;69.53;99788.03;5464665;26;20925;-51
2024/04/15 00:33:28;;;;;;;2.90;1.00;;;;;;;7.85;69.80;99782.88;5471204;25;20002;-53
2024/04/15 00:35:56;;;;;;;2.83;1.17;;;;;;;7.93;68.83;99757.97;5473301;25;20013;-48
2024/04/15 00:38:24;;;;;;;4.05;0.75;;;;;;;7.96;69.12;99765.72;5474277;25;20018;-53
2024/04/15 00:40:51;;;;;;;6.15;2.50;;;;;;;7.94;68.71;99764.84;5453807;26;20002;-52
2024/04/15 00:43:19;;;;;;;1.88;1.33;;;;;;;7.89;69.73;99756.22;5469088;26;20091;-56
2024/04/15 00:45:46;;;;;;;0.82;0.50;;;;;;;7.96;69.10;99750.25;5460120;26;20029;-56
2024/04/15 00:48:17;;;;;;;8.18;1.52;;;;;;;7.91;70.29;99733.88;5464316;26;20006;-51
2024/04/15 00:50:45;;;;;;;;;;;;;;;7.87;70.43;99721.84;5467083;26;20355;-55
2024/04/15 00:53:16;;;;;;;1.02;0.50;;;;;;;7.90;70.50;99715.84;5451155;26;19998;-52
2024/04/15 00:55:47;;;;;;;4.15;0.88;;;;;;;7.94;70.30;99702.94;5452432;26;20018;-54
2024/04/15 00:58:16;;;;;;;4.13;1.58;;;;;;;7.94;69.95;99691.78;5447327;26;20002;-51
2024/04/15 01:00:44;;;;;;;2.10;1.48;;;;;;;8.00;69.41;99683.22;5464076;26;20006;-52
2024/04/15 01:03:12;;;;;;;1.92;1.00;;;;;;;8.03;69.64;99680.59;5461774;25;20005;-49
2024/04/15 01:05:38;;;;;;;5.85;0.88;;;;;;;8.07;69.64;99666.88;5463361;26;20006;-53
2024/04/15 01:08:06;;;;;;;5.50;1.27;;;;;;;8.04;69.24;99662.56;5459164;26;20019;-52
2024/04/15 01:10:33;;;;;;;2.55;1.38;;;;;;;8.00;69.66;99655.69;5462580;26;20006;-56
2024/04/15 01:13:20;;;;;;;1.92;0.77;;;;;;;8.07;69.13;99641.94;5453464;26;20025;-51
2024/04/15 01:15:47;;;;;;;8.30;1.00;;;;;;;8.08;69.63;99645.38;5456836;26;20044;-54
2024/04/15 01:18:14;;;;;;;2.33;0.82;;;;;;;7.95;70.21;99641.94;5451535;26;20022;-51
2024/04/15 01:20:41;;;;;;;3.22;1.08;;;;;;;8.00;70.08;99623.88;5458302;25;20014;-52
2024/04/15 01:23:14;;;;;;;5.18;0.90;;;;;;;8.00;69.76;99614.41;5462933;26;19994;-51
2024/04/15 01:25:41;;;;;;;3.55;1.20;;;;;;;7.95;70.32;99611.84;5465783;26;20016;-53
2024/04/15 01:28:09;;;;;;;4.95;1.40;;;;;;;7.94;70.13;99604.94;5462385;25;20054;-50
2024/04/15 01:30:36;;;;;;;1.00;0.65;;;;;;;7.99;70.27;99607.53;5451148;26;20006;-51
2024/04/15 01:33:03;;;;;;;1.27;0.57;;;;;;;8.01;69.88;99595.53;5461374;25;19995;-58
2024/04/15 01:35:30;;;;;;;4.63;0.73;;;;;;;8.02;70.03;99579.19;5464702;26;20022;-54
2024/04/15 01:37:56;;;;;;;1.55;0.73;;;;;;;8.07;69.77;99579.19;5459855;26;20025;-54
2024/04/15 01:40:23;;;;;;;3.22;0.45;;;;;;;8.02;70.46;99566.28;5468483;25;20755;-52
2024/04/15 01:42:50;;;;;;;4.18;0.85;;;;;;;8.14;69.56;99564.56;5467087;26;20006;-50
2024/04/15 01:45:17;;;;;;;2.00;0.82;;;;;;;8.16;69.67;99549.94;5459191;26;20010;-55
2024/04/15 01:47:45;;;;;;;4.07;0.65;;;;;;;8.07;70.81;99532.75;5462239;26;20006;-50
2024/04/15 01:50:15;;;;;;;1.42;0.77;;;;;;;8.07;70.96;99532.75;5449808;26;20034;-51
2024/04/15 01:52:43;;;;;;;5.05;1.25;;;;;;;8.00;71.55;99543.94;5463893;26;20021;-53
2024/04/15 01:55:10;;;;;;;3.00;0.77;;;;;;;8.05;71.13;99519.00;5460662;26;20453;-49
2024/04/15 01:57:37;;;;;;;2.97;1.10;;;;;;;8.15;70.98;99514.69;5461742;25;20013;-54
2024/04/15 02:00:05;;;;;;;1.00;0.57;;;;;;;8.10;71.22;99519.84;5461854;26;20707;-53
2024/04/15 02:02:32;;;;;;;3.15;0.90;;;;;;;8.13;71.20;99506.94;5462778;26;20017;-54
2024/04/15 02:05:00;;;;;;;8.02;1.85;;;;;;;8.11;71.57;99503.53;5471875;26;20014;-50
2024/04/15 02:07:26;;;;;;;2.70;0.60;;;;;;;8.18;70.96;99478.56;5458148;25;19999;-50
2024/04/15 02:09:53;;;;;;;2.63;0.90;;;;;;;8.15;71.56;99484.59;5460529;26;20014;-53
2024/04/15 02:12:20;;;;;;;1.73;0.45;;;;;;;8.23;71.10;99471.66;5469583;26;20002;-47
2024/04/15 02:14:47;;;;;;;2.92;0.88;;;;;;;8.27;71.64;99469.94;5458032;26;20051;-50
2024/04/15 02:17:13;;;;;;;6.15;1.50;;;;;;;8.30;71.15;99463.03;5463170;26;20470;-51
2024/04/15 02:19:40;;;;;;;4.03;1.73;;;;;;;8.27;71.76;99457.06;5453238;26;20478;-54
2024/04/15 02:22:07;;;;;;;6.13;0.75;;;;;;;8.36;71.24;99446.69;5456295;26;20034;-50
2024/04/15 02:24:34;;;;;;;3.67;0.73;;;;;;;8.35;71.63;99442.41;5455517;26;20010;-49
2024/04/15 02:27:01;;;;;;;4.82;1.20;;;;;;;8.39;71.88;99435.50;5451065;26;20010;-52
2024/04/15 02:29:27;;;;;;;4.78;1.58;;;;;;;8.51;70.68;99434.59;5470237;26;20002;-51
2024/04/15 02:31:54;;;;;;;4.57;1.38;;;;;;;8.51;71.40;99439.75;5462073;26;20040;-52
2024/04/15 02:34:21;;;;;;;4.70;1.30;;;;;;;8.48;71.51;99430.31;5458978;26;20002;-52
2024/04/15 02:36:50;;;;;;;3.97;0.90;;;;;;;8.49;71.67;99430.28;5462875;26;20076;-54
2024/04/15 02:39:16;;;;;;;2.67;0.95;;;;;;;8.57;71.48;99422.56;5468456;25;20010;-51
2024/04/15 02:41:43;;;;;;;1.35;1.17;;;;;;;8.47;72.51;99428.56;5468341;25;20041;-51
2024/04/15 02:44:10;;;;;;;0.85;0.50;;;;;;;8.61;71.43;99402.72;5472289;25;20534;-54
2024/04/15 02:46:37;;;;;;;4.25;1.35;;;;;;;8.65;71.22;99376.03;5465966;26;20034;-50
2024/04/15 02:49:03;;;;;;;3.58;0.80;;;;;;;8.72;70.97;99395.78;5466219;26;20011;-50
2024/04/15 02:51:31;;;;;;;2.30;1.05;;;;;;;8.72;71.23;99382.88;5451884;26;20362;-53
2024/04/15 02:53:58;;;;;;;1.50;1.30;;;;;;;8.69;71.22;99377.75;5466694;26;19999;-51
2024/04/15 02:56:25;;;;;;;3.20;0.65;;;;;;;8.71;70.92;99381.16;5466985;25;20017;-51
2024/04/15 02:58:52;;;;;;;2.05;0.57;;;;;;;8.70;71.54;99368.25;5463951;26;20013;-54
2024/04/15 03:01:19;;;;;;;0.82;0.52;;;;;;;8.71;71.42;99355.34;5467576;26;20006;-49
2024/04/15 03:03:46;;;;;;;5.85;0.52;;;;;;;8.79;71.38;99349.28;5471945;26;20076;-53
2024/04/15 03:06:19;;;;;;;1.42;0.75;;;;;;;8.66;71.44;99344.22;5471046;26;20779;-49
2024/04/15 03:08:46;;;;;;;3.25;0.88;;;;;;;8.76;71.26;99328.66;5467504;26;20081;-51
2024/04/15 03:11:13;;;;;;;1.55;1.45;;;;;;;8.72;71.59;99328.66;5459426;26;20543;-53
2024/04/15 03:13:40;;;;;;;2.38;1.05;;;;;;;8.74;71.43;99319.19;5476022;26;20006;-49
2024/04/15 03:16:07;;;;;;;2.25;1.17;;;;;;;8.63;72.29;99314.97;5462845;26;20774;-50
2024/04/15 03:18:45;;;;;;;2.30;0.85;;;;;;;8.61;72.08;99302.06;5476097;25;20002;-54
2024/04/15 03:21:12;;;;;;;6.13;1.65;;;;;;;8.74;71.65;99302.81;5469751;26;20007;-51
2024/04/15 03:23:39;;;;;;;1.17;0.50;;;;;;;8.67;72.02;99291.69;5461685;26;20010;-49
2024/04/15 03:26:06;;;;;;;1.58;0.40;;;;;;;8.68;71.87;99282.25;5468757;26;20010;-53
2024/04/15 03:28:33;;;;;;;1.25;1.13;;;;;;;8.62;72.73;99277.97;5472086;26;20075;-52
2024/04/15 03:31:00;;;;;;;3.72;1.13;;;;;;;8.59;72.64;99272.84;5461613;26;20074;-52
2024/04/15 03:33:26;;;;;;;3.75;0.95;;;;;;;8.58;73.31;99256.47;5471883;26;20007;-52
2024/04/15 03:35:53;;;;;;;1.40;0.93;;;;;;;8.61;73.10;99263.34;5475206;25;20017;-54
2024/04/15 03:38:20;;;;;;;2.30;0.85;;;;;;;8.70;72.15;99255.53;5475800;26;20025;-49
2024/04/15 03:40:47;;;;;;;1.92;0.75;;;;;;;8.72;72.25;99248.63;5455209;26;20020;-51
2024/04/15 03:43:14;;;;;;;3.05;1.15;;;;;;;8.69;72.73;99233.19;5473958;26;20009;-51
2024/04/15 03:45:41;;;;;;;2.92;0.38;;;;;;;8.68;72.79;99241.78;5461418;25;20353;-50
2024/04/15 03:48:08;;;;;;;2.30;1.33;;;;;;;8.73;72.66;99228.84;5473182;26;20016;-51
2024/04/15 03:50:35;;;;;;;4.50;1.30;;;;;;;8.69;72.68;99215.09;5460624;25;20025;-49
2024/04/15 03:53:02;;;;;;;2.42;0.77;;;;;;;8.58;73.84;99206.59;5451192;26;20786;-49
2024/04/15 03:55:29;;;;;;;4.78;0.93;;;;;;;8.67;73.18;99188.44;5474208;25;20016;-53
2024/04/15 03:57:55;;;;;;;1.65;1.05;;;;;;;8.63;73.50;99186.75;5461259;26;19999;-50
2024/04/15 04:00:22;;;;;;;2.95;1.10;;;;;;;8.47;74.57;99178.25;5472288;26;20002;-53
2024/04/15 04:02:49;;;;;;;1.88;1.00;;;;;;;8.42;75.48;99161.94;5476641;25;20180;-55
2024/04/15 04:05:19;;;;;;;1.25;1.02;;;;;;;8.49;75.20;99159.28;5464055;26;20018;-50
2024/04/15 04:07:46;;;;;;;1.48;0.50;;;;;;;8.60;74.49;99155.78;5464730;26;20080;-55
2024/04/15 04:10:14;;;;;;;3.72;1.00;;;;;;;8.65;73.92;99160.94;5474389;26;20016;-52
2024/04/15 04:12:41;;;;;;;2.05;0.73;;;;;;;8.66;73.76;99148.00;5469194;26;20002;-50
2024/04/15 04:15:08;;;;;;;1.75;1.25;;;;;;;8.70;73.43;99141.06;5452612;26;20010;-53
2024/04/15 04:17:35;;;;;;;4.47;1.00;;;;;;;8.67;73.86;99131.63;5464038;25;20117;-51
2024/04/15 04:20:02;;;;;;;3.25;0.55;;;;;;;8.65;73.94;99123.03;5459475;26;20003;-51
2024/04/15 04:22:29;;;;;;;5.57;1.17;;;;;;;8.61;74.26;99117.06;5455944;26;19999;-55
2024/04/15 04:24:55;;;;;;;1.42;0.60;;;;;;;8.62;74.27;99110.19;5454714;25;20016;-50
2024/04/15 04:27:22;;;;;;;1.80;0.80;;;;;;;8.62;74.08;99099.88;5467237;26;20010;-52
2024/04/15 04:29:49;;;;;;;1.95;1.02;;;;;;;8.52;74.78;99105.94;5475556;26;20045;-49
2024/04/15 04:32:16;;;;;;;2.50;1.77;;;;;;;8.46;74.96;99110.31;5468488;26;20074;-54
2024/04/15 04:34:43;;;;;;;3.90;0.82;;;;;;;8.58;74.18;99100.75;5465594;26;19998;-54
2024/04/15 04:37:09;;;;;;;5.43;0.55;;;;;;;8.61;73.90;99085.22;5457655;26;20075;-50
2024/04/15 04:39:36;;;;;;;3.00;1.27;;;;;;;8.48;74.25;99069.84;5456326;25;20514;-52
2024/04/15 04:42:03;;;;;;;3.08;0.85;;;;;;;8.58;74.29;99065.47;5462758;25;20010;-48
2024/04/15 04:44:30;;;;;;;4.70;0.85;;;;;;;8.60;74.15;99060.28;5468467;26;20014;-52
2024/04/15 04:46:57;;;;;;;1.40;0.68;;;;;;;8.62;74.39;99066.31;5471918;26;20030;-51
2024/04/15 04:49:23;;;;;;;7.22;1.05;;;;;;;8.70;73.32;99054.16;5459949;26;20100;-55
2024/04/15 04:51:51;;;;;;;1.33;0.88;;;;;;;8.71;73.23;99039.50;5471042;25;20002;-53
2024/04/15 04:54:18;;;;;;;3.92;1.52;;;;;;;8.59;73.64;99040.53;5452873;26;20459;-49
2024/04/15 04:56:45;;;;;;;5.15;0.75;;;;;;;8.65;73.46;99024.94;5461077;25;20790;-49
2024/04/15 04:59:13;;;;;;;2.00;1.17;;;;;;;8.67;72.82;99018.06;5462421;26;20003;-54
2024/04/15 05:01:40;;;;;;;2.20;0.63;;;;;;;8.64;73.20;98996.59;5444461;26;20010;-53
2024/04/15 05:04:08;;;;;;;1.95;0.85;;;;;;;8.69;72.83;99000.84;5458058;26;20071;-53
2024/04/15 05:06:36;;;;;;;3.75;1.02;;;;;;;8.68;72.83;98978.44;5459846;25;20017;-52
2024/04/15 05:09:03;;;;;;;1.48;1.27;;;;;;;8.66;72.77;98975.06;5450981;26;20040;-50
2024/04/15 05:11:32;;;;;;;2.63;0.77;;;;;;;8.63;73.01;98969.06;5450594;25;20006;-54
2024/04/15 05:13:59;;;;;;;6.72;3.03;;;;;;;8.48;72.89;98945.13;5456618;26;20010;-52
2024/04/15 05:16:26;;;;;;;1.92;0.90;;;;;;;8.46;73.22;98939.97;5456034;26;20016;-54
2024/04/15 05:18:53;;;;;;;1.20;0.50;;;;;;;8.52;72.91;98938.19;5460732;25;20388;-50
2024/04/15 05:21:20;;;;;;;2.58;1.08;;;;;;;8.52;72.52;98930.44;5465464;26;20651;-52
2024/04/15 05:23:48;;;;;;;4.05;0.65;;;;;;;8.58;72.26;98930.41;5463234;25;20017;-53
2024/04/15 05:26:15;;;;;;;1.92;1.65;;;;;;;8.55;72.67;98943.34;5469888;26;20014;-51
2024/04/15 05:28:41;;;;;;;2.53;1.38;;;;;;;8.61;72.53;98931.22;5459487;26;20079;-50
2024/04/15 05:31:08;;;;;;;5.53;2.25;;;;;;;8.56;72.88;98934.72;5466847;26;19998;-51
2024/04/15 05:33:35;;;;;;;1.42;0.55;;;;;;;8.66;72.06;98912.22;5460109;26;20006;-51
2024/04/15 05:36:02;;;;;;;4.32;0.68;;;;;;;8.73;71.76;98895.78;5458629;26;20103;-53
2024/04/15 05:38:29;;;;;;;7.07;1.60;;;;;;;8.74;72.05;98911.25;5457246;26;20149;-52
2024/04/15 05:40:56;;;;;;;3.38;0.98;;;;;;;8.71;72.01;98889.78;5460977;26;20072;-52
2024/04/15 05:43:23;;;;;;;5.95;1.42;;;;;;;8.60;72.01;98882.19;5459684;26;20495;-53
2024/04/15 05:45:50;;;;;;;5.65;1.05;;;;;;;8.74;71.27;98869.97;5467639;26;20067;-50
2024/04/15 05:48:17;;;;;;;2.67;1.00;;;;;;;8.68;71.82;98846.81;5459905;25;20466;-52
2024/04/15 05:50:44;;;;;;;3.08;1.58;;;;;;;8.63;71.98;98866.66;5463925;25;20009;-51
2024/04/15 05:53:11;;;;;;;1.77;0.73;;;;;;;8.80;71.14;98863.00;5455129;26;20009;-53
2024/04/15 05:55:40;;;;;;;4.45;1.85;;;;;;;8.80;70.92;98848.38;5476444;26;20017;-50
2024/04/15 05:58:07;;;;;;;4.05;1.25;;;;;;;8.79;71.58;98845.81;5460829;26;20076;-56
2024/04/15 06:00:35;;;;;;;2.28;1.20;;;;;;;8.83;71.31;98832.84;5458212;25;20016;-51
2024/04/15 06:03:02;;;;;;;4.05;1.02;;;;;;;8.92;71.30;98831.81;5461406;26;20061;-52
2024/04/15 06:05:29;;;;;;;9.07;2.17;;;;;;;8.90;71.41;98815.50;5469467;25;20017;-53
2024/04/15 06:07:56;;;;;;;3.78;1.25;;;;;;;8.94;71.59;98814.59;5469773;26;20017;-52
2024/04/15 06:10:24;;;;;;;4.63;1.40;;;;;;;8.93;71.60;98812.00;5460290;25;20027;-51
2024/04/15 06:12:51;;;;;;;2.50;0.90;;;;;;;8.99;71.25;98792.09;5452049;26;20013;-48
2024/04/15 06:15:18;;;;;;;1.25;0.43;;;;;;;9.13;71.02;98791.03;5453484;26;20002;-50
2024/04/15 06:17:46;;;;;;;1.95;1.15;;;;;;;9.13;70.55;98783.28;5459830;26;20016;-52
2024/04/15 06:20:13;;;;;;;2.05;0.57;;;;;;;9.12;70.11;98776.44;5471253;26;20041;-51
2024/04/15 06:22:40;;;;;;;3.35;0.73;;;;;;;9.11;69.97;98760.06;5459503;26;20006;-50
2024/04/15 06:25:07;;;;;;;4.80;1.80;;;;;;;9.06;70.64;98753.28;5460112;26;20081;-52
2024/04/15 06:27:34;;;;;;;3.97;0.73;;;;;;;9.01;71.67;98771.41;5466548;26;20002;-54
2024/04/15 06:30:04;;;;;;;4.35;1.13;;;;;;;9.03;71.64;98748.16;5465378;25;20006;-52
2024/04/15 06:32:31;;;;;;;5.47;1.67;;;;;;;8.85;72.10;98751.03;5468581;26;20050;-51
2024/04/15 06:34:58;;;;;;;1.90;0.98;;;;;;;8.94;72.17;98746.56;5460394;26;21118;-50
2024/04/15 06:37:25;;;;;;;2.03;0.98;;;;;;;8.82;73.31;98742.47;5461054;26;20052;-49
2024/04/15 06:39:51;;;;;;;5.82;1.10;;;;;;;8.73;73.93;98723.69;5461541;26;20134;-50
2024/04/15 06:42:18;;;;;;;2.63;1.35;;;;;;;8.68;74.95;98724.66;5464466;26;20005;-50
2024/04/15 06:44:45;;;;;;;2.17;0.68;;;;;;;8.66;74.91;98708.31;5469440;26;20002;-51
2024/04/15 06:47:12;;;;;;;4.57;1.02;;;;;;;8.47;75.82;98732.66;5449623;26;19998;-55
2024/04/15 06:49:39;;;;;;;1.15;0.68;;;;;;;8.47;76.48;98714.59;5455912;26;20444;-48
2024/04/15 06:52:06;;;;;;;1.90;0.70;;;;;;;8.41;77.13;98721.59;5461479;26;20011;-48
2024/04/15 06:54:33;;;;;;;1.55;0.82;;;;;;;8.41;76.65;98711.28;5456980;26;20507;-47
2024/04/15 06:56:59;;;;;;;6.50;1.50;;;;;;;8.42;76.50;98703.50;5453368;26;20009;-49
2024/04/15 06:59:26;;;;;;;5.57;1.40;;;;;;;8.27;77.76;98720.06;5453448;26;20003;-49
2024/04/15 07:01:53;;;;;;;4.00;0.82;;;;;;;8.10;78.22;98704.81;5452576;26;20003;-49
2024/04/15 07:04:21;;;;;;;1.55;0.90;;;;;;;8.19;77.54;98712.44;5452416;26;20405;-49
2024/04/15 07:06:48;;;;;;;7.03;1.38;;;;;;;8.08;77.60;98709.16;5448978;26;20006;-49
2024/04/15 07:09:15;;;;;;;2.80;1.30;;;;;;;8.01;76.81;98723.00;5455776;26;20006;-47
2024/04/15 07:11:42;;;;;;;1.85;0.98;;;;;;;7.97;76.55;98733.34;5447098;26;20021;-50
2024/04/15 07:14:08;;;;;;;1.42;0.68;;;;;;;7.89;76.61;98724.88;5452588;26;20021;-47
2024/04/15 07:16:35;;;;;;;2.90;1.08;;;;;;;7.92;77.07;98740.31;5449979;26;20391;-47
2024/04/15 07:19:02;;;;;;;1.65;0.38;;;;;;;7.92;75.44;98753.19;5453960;26;20002;-47
2024/04/15 07:21:29;;;;;;;0.63;0.63;;;;;;;7.76;73.63;98757.69;5456192;26;20531;-48
2024/04/15 07:23:56;;;;;;;0.88;0.50;;;;;;;7.75;73.23;98744.81;5458156;26;20508;-48
2024/04/15 07:26:23;;;;;;;4.63;0.57;;;;;;;7.56;72.78;98737.28;5454792;26;19995;-50
2024/04/15 07:28:52;;;;;;;1.90;0.88;;;;;;;7.53;73.05;98745.09;5470275;26;20095;-49
2024/04/15 07:31:19;;;;;;;0.70;0.55;;;;;;;7.36;72.83;98751.25;5457671;26;20025;-49
2024/04/15 07:33:46;;;;;;;1.98;0.65;;;;;;;7.27;72.83;98751.34;5457711;25;20050;-45
2024/04/15 07:36:13;;;;;;;4.32;0.68;;;;;;;7.18;73.14;98740.28;5472051;26;20338;-47
2024/04/15 07:38:40;;;;;;;1.80;0.47;;;;;;;7.10;72.47;98744.66;5465975;26;20002;-50
2024/04/15 07:41:06;;;;;;;2.42;0.40;;;;;;;7.02;72.10;98761.88;5468382;26;20005;-48
2024/04/15 07:43:33;;;;;;;2.15;1.58;;;;;;;6.96;72.09;98754.22;5484830;25;20071;-49
2024/04/15 07:46:00;;;;;;;1.25;0.55;;;;;;;6.92;71.54;98761.97;5477732;25;20006;-46
2024/04/15 07:48:27;;;;;;;2.75;0.50;;;;;;;6.86;71.61;98777.44;5452342;26;20068;-48
2024/04/15 07:50:53;;;;;;;0.80;0.75;;;;;;;6.78;71.93;98769.81;5460691;26;20031;-47
2024/04/15 07:53:20;;;;;;;3.00;1.45;;;;;;;6.80;72.03;98772.38;5459062;26;20052;-45
2024/04/15 07:55:47;;;;;;;0.38;0.20;;;;;;;6.80;71.63;98780.09;5451128;26;20043;-47
2024/04/15 07:58:14;;;;;;;3.08;0.50;;;;;;;6.82;71.69;98786.06;5470067;25;20002;-47
2024/04/15 08:00:42;;;;;;;0.82;0.30;;;;;;;6.83;71.68;98787.78;5455919;26;20013;-47
2024/04/15 08:03:09;;;;;;;1.55;0.43;;;;;;;6.80;72.18;98800.69;5470060;26;20083;-48
2024/04/15 08:05:37;;;;;;;4.40;0.95;;;;;;;6.85;72.39;98801.50;5454966;26;20347;-47
2024/04/15 08:08:06;;;;;;;0.98;0.25;;;;;;;6.90;72.16;98799.75;5470065;26;20385;-46
2024/04/15 08:10:34;;;;;;;3.25;0.43;;;;;;;6.88;72.44;98796.31;5466332;26;20056;-50
2024/04/15 08:13:01;;;;;;;0.93;0.93;;;;;;;6.99;72.12;98797.97;5475279;26;19999;-47
2024/04/15 08:15:31;;;;;;;1.85;0.77;;;;;;;7.06;71.90;98799.63;5476234;26;20010;-48
2024/04/15 08:18:00;;;;;;;2.08;0.43;;;;;;;7.19;71.85;98787.47;5482178;25;20075;-46
2024/04/15 08:20:27;;;;;;;1.00;0.55;;;;;;;7.40;72.55;98794.13;5454194;26;20024;-48
2024/04/15 08:22:53;;;;;;;0.90;0.90;;;;;;;7.62;71.88;98790.50;5465405;26;20013;-48
2024/04/15 08:25:20;;;;;;;1.85;0.68;;;;;;;8.17;72.09;98791.56;5457687;25;19998;-48
2024/04/15 08:27:47;;;;;;;0.57;0.52;;;;;;;8.31;71.01;98778.47;5457514;26;20430;-48
2024/04/15 08:30:14;;;;;;;2.45;0.77;;;;;;;8.57;70.95;98763.50;5450731;26;19995;-48
2024/04/15 08:32:41;;;;;;;1.60;0.30;;;;;;;9.08;70.66;98769.56;5461281;26;20009;-49
2024/04/15 08:35:08;;;;;;;2.60;0.32;;;;;;;9.06;69.65;98761.03;5453070;26;20054;-47
2024/04/15 08:37:35;;;;;;;0.95;0.93;;;;;;;9.08;69.51;98754.06;5474529;26;20001;-50
2024/04/15 08:40:04;;;;;;;1.25;0.93;;;;;;;8.85;69.03;98757.94;5458897;26;20405;-48
2024/04/15 08:42:52;;;;;;;0.68;0.68;;;;;;;8.64;68.11;98780.59;5468070;25;20009;-48
2024/04/15 08:45:20;;;;;;;1.02;0.88;;;;;;;8.49;67.85;98782.50;5479301;26;20028;-46
2024/04/15 08:47:50;;;;;;;0.52;0.32;;;;;;;8.39;67.85;98775.78;5474524;26;20034;-48
2024/04/15 08:50:19;;;;;;;2.40;0.95;;;;;;;8.38;68.51;98787.00;5469385;26;19999;-48
2024/04/15 08:52:49;;;;;;;1.77;0.28;;;;;;;8.36;68.35;98791.31;5478171;26;20017;-48
2024/04/15 08:55:16;;;;;;;1.30;0.93;;;;;;;8.25;68.44;98803.50;5476404;25;20074;-45
2024/04/15 08:57:45;;;;;;;4.30;0.88;;;;;;;8.13;67.96;98800.22;5452795;26;20072;-51
2024/04/15 09:00:17;;;;;;;3.78;0.38;;;;;;;8.13;68.71;98810.53;5459858;26;20046;-45
2024/04/15 09:02:46;;;;;;;0.80;0.40;;;;;;;8.39;68.96;98811.03;5470225;26;20429;-47
2024/04/15 09:05:13;;;;;;;0.40;0.30;;;;;;;8.71;68.81;98817.50;5455837;25;19998;-46
2024/04/15 09:07:40;;;;;;;1.58;0.82;;;;;;;9.23;68.56;98820.97;5464985;26;19998;-45
2024/04/15 09:10:07;;;;;;;1.67;1.27;;;;;;;9.58;66.94;98805.75;5464487;26;20795;-50
2024/04/15 09:12:35;;;;;;;1.15;0.55;;;;;;;10.27;65.47;98794.88;5466427;26;20100;-46
2024/04/15 09:15:03;;;;;;;0.95;0.50;;;;;;;10.71;63.53;98801.69;5473888;26;20013;-49
2024/04/15 09:17:31;;;;;;;3.80;2.03;;;;;;;11.12;62.63;98813.72;5460755;25;20029;-47
2024/04/15 09:19:58;;;;;;;2.13;0.65;;;;;;;11.05;61.49;98803.47;5434085;26;19999;-50
2024/04/15 09:22:29;;;;;;;1.10;0.47;;;;;;;10.70;59.55;98801.75;5464680;26;20091;-50
2024/04/15 09:24:57;;;;;;;3.03;0.88;;;;;;;10.38;59.41;98801.56;5477990;26;20010;-47
2024/04/15 09:27:25;;;;;;;1.48;0.60;;;;;;;10.10;59.39;98823.69;5474161;26;20006;-50
2024/04/15 09:29:52;;;;;;;0.32;0.32;;;;;;;9.63;58.15;98814.25;5465311;26;20012;-50
2024/04/15 09:32:19;;;;;;;2.60;0.43;;;;;;;9.68;58.89;98788.31;5464926;25;20018;-49
2024/04/15 09:34:46;;;;;;;1.30;0.80;;;;;;;9.91;57.15;98825.81;5449496;26;20006;-49
2024/04/15 09:37:14;;;;;;;2.78;0.80;;;;;;;10.23;58.14;98828.63;5469199;26;20325;-47
2024/04/15 09:39:43;;;;;;;2.10;0.98;;;;;;;10.70;58.08;98827.66;5468331;25;20023;-48
2024/04/15 09:42:13;;;;;;;0.95;0.70;;;;;;;11.09;57.45;98839.69;5454949;26;20010;-49
2024/04/15 09:44:45;;;;;;;1.33;0.43;;;;;;;11.45;57.18;98837.03;5464926;25;20038;-46
2024/04/15 09:47:13;;;;;;;2.30;1.02;;;;;;;11.56;54.77;98829.84;5466940;25;20028;-48
2024/04/15 09:49:40;;;;;;;1.48;1.02;;;;;;;11.60;53.13;98842.72;5469909;26;20018;-51
2024/04/15 09:52:11;;;;;;;1.23;1.00;;;;;;;11.70;53.43;98852.84;5456922;25;20565;-50
2024/04/15 09:54:41;;;;;;;1.48;0.47;;;;;;;11.77;51.57;98826.72;5451810;26;20003;-48
2024/04/15 09:57:23;;;;;;;1.48;0.30;;;;;;;11.74;49.88;98830.25;5451796;25;20347;-49
2024/04/15 10:00:01;;;;;;;0.50;0.20;;;;;;;11.82;48.43;98830.88;5454856;26;20009;-48
2024/04/15 10:02:36;;;;;;;2.28;0.80;;;;;;;11.92;50.27;98846.22;5468587;25;19998;-48
2024/04/15 10:05:20;;;;;;;0.90;0.45;;;;;;;12.00;50.59;98849.44;5456502;26;20017;-49
2024/04/15 10:07:51;;;;;;;0.98;0.45;;;;;;;12.17;50.56;98840.34;5452660;26;20442;-52
2024/04/15 10:10:19;;;;;;;3.38;0.88;;;;;;;12.03;48.01;98849.34;5405586;26;20025;-48
2024/04/15 10:12:51;;;;;;;1.08;0.68;;;;;;;11.96;47.54;98838.28;5469825;26;20002;-51
2024/04/15 10:15:21;;;;;;;3.30;1.35;;;;;;;12.11;48.46;98859.56;5469108;26;20920;-46
2024/04/15 10:18:14;;;;;;;2.00;1.13;;;;;;;12.23;48.09;98839.34;5459225;25;20070;-48
2024/04/15 10:20:45;;;;;;;1.33;0.63;;;;;;;12.07;46.73;98852.75;5461205;26;20030;-47
2024/04/15 10:23:18;;;;;;;4.25;0.40;;;;;;;11.93;45.98;98817.63;5471558;26;20013;-49
2024/04/15 10:25:46;;;;;;;1.17;1.13;;;;;;;11.79;45.97;98830.97;5453910;26;20018;-52
2024/04/15 10:28:14;;;;;;;1.85;1.13;;;;;;;11.89;45.84;98835.91;5451076;26;20013;-52
2024/04/15 10:30:45;;;;;;;1.58;0.32;;;;;;;11.83;45.50;98850.75;5449453;26;20005;-48
2024/04/15 10:33:15;;;;;;;1.30;0.50;;;;;;;12.03;46.76;98851.94;5456679;26;20017;-48
2024/04/15 10:35:44;;;;;;;1.58;0.60;;;;;;;12.04;45.92;98843.28;5455376;26;20051;-54
2024/04/15 10:38:11;;;;;;;0.80;0.52;;;;;;;12.07;46.61;98856.22;5462013;25;19999;-54
2024/04/15 10:40:43;;;;;;;2.10;0.70;;;;;;;11.90;45.07;98853.19;5446502;26;20011;-52
2024/04/15 10:43:12;;;;;;;1.27;0.47;;;;;;;11.55;47.52;98869.63;5456796;26;20714;-51
2024/04/15 10:45:39;;;;;;;2.55;0.88;;;;;;;11.03;49.95;98864.88;5455662;25;20017;-49
2024/04/15 10:48:06;;;;;;;0.93;0.57;;;;;;;10.66;51.86;98868.28;5453804;26;20003;-51
2024/04/15 10:50:33;;;;;;;4.15;0.88;;;;;;;10.69;52.18;98885.50;5459690;26;20002;-52
2024/04/15 10:53:00;;;;;;;0.75;0.55;;;;;;;10.71;52.71;98892.34;5463911;26;20020;-49
2024/04/15 10:55:27;;;;;;;2.10;0.98;;;;;;;10.40;53.56;98867.06;5449551;26;20463;-51
2024/04/15 10:57:54;;;;;;;2.47;0.98;;;;;;;10.08;54.52;98912.56;5451199;25;20025;-48
2024/04/15 11:00:23;;;;;;;4.03;0.52;;;;;;;9.56;54.72;98910.88;5466899;26;20002;-47
2024/04/15 11:02:52;;;;;;;2.92;0.60;;;;;;;9.18;55.86;98918.38;5471250;26;20010;-49
2024/04/15 11:05:22;;;;;;;5.10;1.25;;;;;;;9.14;56.70;98921.91;5457553;26;20017;-48
2024/04/15 11:07:51;;;;;;;1.92;0.50;;;;;;;9.33;58.16;98913.88;5465738;26;20359;-49
2024/04/15 11:10:18;;;;;;;5.93;1.08;;;;;;;9.69;58.68;98901.19;5452153;26;20092;-47
2024/04/15 11:12:52;;;;;;;1.10;0.90;;;;;;;10.06;58.48;98888.47;5440611;26;20021;-48
2024/04/15 11:15:21;;;;;;;2.78;1.02;;;;;;;10.31;58.56;98887.97;5459402;26;20584;-51
2024/04/15 11:17:50;;;;;;;3.05;1.10;;;;;;;10.59;58.41;98883.13;5459352;25;20006;-48
2024/04/15 11:20:18;;;;;;;2.35;1.08;;;;;;;10.77;56.96;98878.41;5461908;26;20079;-50
2024/04/15 11:22:46;;;;;;;12.32;4.30;;;;;;;10.96;56.20;98891.81;5466795;26;20010;-48
2024/04/15 11:25:14;;;;;;;3.03;1.20;;;;;;;10.62;53.30;98887.38;5472051;25;20010;-49
2024/04/15 11:27:45;;;;;;;1.77;0.98;;;;;;;10.19;54.42;98882.16;5461348;26;20344;-51
2024/04/15 11:30:20;;;;;;;2.25;0.82;;;;;;;9.89;55.30;98910.31;5454424;26;20070;-47
2024/04/15 11:32:49;;;;;;;6.97;1.10;;;;;;;9.56;56.60;98910.06;5459147;25;20001;-47
2024/04/15 11:35:16;;;;;;;2.30;1.08;;;;;;;9.64;58.39;98895.25;5459943;26;20827;-46
2024/04/15 11:37:43;;;;;;;1.02;0.73;;;;;;;9.84;58.88;98909.56;5464040;26;20007;-47
2024/04/15 11:40:12;;;;;;;3.60;1.15;;;;;;;10.13;59.12;98900.38;5466181;25;20518;-48
2024/04/15 11:42:41;;;;;;;4.45;1.52;;;;;;;10.38;58.12;98905.09;5465986;26;20033;-48
2024/04/15 11:45:14;;;;;;;4.15;2.20;;;;;;;10.65;57.33;98895.06;5468281;26;20013;-47